Time;durP1;ratioP1;P1;durP2;ratioP2;P2;SDS_P1;SDS_P2;PMS_P1;PMS_P2;Temp;Humidity;BMP_temperature;BMP_pressure;BME280_temperature;BME280_humidity;BME280_pressure;Samples;Min_cycle;Max_cycle;Signal;HPM_P1;HPM_P2
2022/10/05 00:02:22;;;;;;;8.17;7.57;;;12.80;88.80;;;;;;5029165;28;20726;-85
2022/10/05 00:04:51;;;;;;;8.90;8.03;;;12.80;89.30;;;;;;5025490;28;20221;-86
2022/10/05 00:07:19;;;;;;;9.00;8.13;;;12.80;89.80;;;;;;5025663;28;20189;-85
2022/10/05 00:09:54;;;;;;;8.97;8.10;;;12.90;89.60;;;;;;5025001;28;20254;-85
2022/10/05 00:12:21;;;;;;;8.70;8.00;;;12.80;89.80;;;;;;5025462;28;20312;-85
2022/10/05 00:14:48;;;;;;;9.80;8.90;;;12.90;89.20;;;;;;5025497;28;20676;-85
2022/10/05 00:17:18;;;;;;;9.73;8.93;;;12.80;88.10;;;;;;5025272;28;20248;-85
2022/10/05 00:19:45;;;;;;;9.57;8.73;;;12.80;89.60;;;;;;5023595;28;20390;-85
2022/10/05 00:22:17;;;;;;;9.47;8.63;;;12.80;89.10;;;;;;5023561;28;20441;-85
2022/10/05 00:24:44;;;;;;;10.00;9.10;;;12.70;89.50;;;;;;5022087;28;20190;-85
2022/10/05 00:27:20;;;;;;;12.73;8.67;;;12.60;90.20;;;;;;5021517;28;20223;-85
2022/10/05 00:29:48;;;;;;;9.40;8.50;;;12.60;90.10;;;;;;5023119;28;20238;-85
2022/10/05 00:32:14;;;;;;;9.07;8.23;;;12.60;89.40;;;;;;5027180;28;20225;-85
2022/10/05 00:34:41;;;;;;;8.60;7.90;;;12.60;89.80;;;;;;5027794;28;20207;-84
2022/10/05 00:37:07;;;;;;;8.77;7.90;;;12.60;89.00;;;;;;5027444;28;20195;-86
2022/10/05 00:39:34;;;;;;;9.03;8.23;;;12.60;88.70;;;;;;5028819;28;20253;-85
2022/10/05 00:42:24;;;;;;;8.50;7.70;;;12.60;88.70;;;;;;5024466;28;20218;-85
2022/10/05 00:45:13;;;;;;;8.97;8.07;;;12.50;88.90;;;;;;5028177;28;20191;-86
2022/10/05 00:47:48;;;;;;;8.63;7.80;;;12.40;89.50;;;;;;5026555;28;20208;-85
2022/10/05 00:50:19;;;;;;;8.80;8.00;;;12.50;90.30;;;;;;5025159;28;20186;-85
2022/10/05 00:53:08;;;;;;;9.37;8.33;;;12.50;91.00;;;;;;5026183;28;20227;-86
2022/10/05 00:55:37;;;;;;;8.27;7.03;;;12.40;88.90;;;;;;5023611;28;20228;-86
2022/10/05 00:58:16;;;;;;;8.17;7.57;;;12.40;90.50;;;;;;5022483;28;20624;-85
2022/10/05 01:01:02;;;;;;;7.53;6.97;;;12.40;91.60;;;;;;5025882;28;20267;-85
2022/10/05 01:03:45;;;;;;;8.33;7.63;;;12.50;92.10;;;;;;5025626;28;20465;-86
2022/10/05 01:06:30;;;;;;;7.70;7.03;;;12.60;92.50;;;;;;5027548;28;20194;-85
2022/10/05 01:09:22;;;;;;;7.70;7.10;;;12.50;93.40;;;;;;5027260;28;20183;-86
2022/10/05 01:12:08;;;;;;;7.60;7.00;;;12.60;94.50;;;;;;5022004;28;20265;-86
2022/10/05 01:15:07;;;;;;;7.80;7.10;;;12.60;94.80;;;;;;5021878;28;20268;-85
2022/10/05 01:17:38;;;;;;;8.83;7.50;;;12.60;93.00;;;;;;5026713;28;20556;-85
2022/10/05 01:20:16;;;;;;;7.90;7.20;;;12.60;92.80;;;;;;5026344;28;20455;-85
2022/10/05 01:22:48;;;;;;;8.17;7.53;;;12.50;93.20;;;;;;5023453;28;20211;-85
2022/10/05 01:25:20;;;;;;;7.27;6.77;;;12.40;93.80;;;;;;5019204;28;20201;-86
2022/10/05 01:28:07;;;;;;;7.70;6.90;;;12.30;95.00;;;;;;5025779;28;20190;-85
2022/10/05 01:30:46;;;;;;;7.70;6.97;;;12.20;96.10;;;;;;5027453;28;20229;-86
2022/10/05 01:33:24;;;;;;;7.43;6.83;;;12.20;97.50;;;;;;5024368;28;20352;-85
2022/10/05 01:36:08;;;;;;;6.47;5.97;;;12.30;97.60;;;;;;5029203;28;20187;-85
2022/10/05 01:38:39;;;;;;;7.53;7.00;;;12.20;95.10;;;;;;5026648;28;20250;-85
2022/10/05 01:41:28;;;;;;;7.17;6.63;;;12.20;95.70;;;;;;5024820;28;20209;-85
2022/10/05 01:43:59;;;;;;;7.33;6.80;;;12.20;94.70;;;;;;5028511;28;20242;-86
2022/10/05 01:47:06;;;;;;;7.00;6.50;;;12.20;94.60;;;;;;5029906;28;20273;-85
2022/10/05 01:49:36;;;;;;;7.30;6.60;;;12.30;93.70;;;;;;5032926;28;20216;-86
2022/10/05 01:52:24;;;;;;;6.70;6.20;;;12.30;93.90;;;;;;5027869;28;20205;-86
2022/10/05 01:55:13;;;;;;;7.60;6.87;;;12.30;93.20;;;;;;5026004;28;20183;-85
2022/10/05 01:57:41;;;;;;;7.37;6.77;;;12.30;92.90;;;;;;5017747;28;20202;-85
2022/10/05 02:00:13;;;;;;;9.17;6.63;;;12.30;93.10;;;;;;5024392;28;20211;-85
2022/10/05 02:02:56;;;;;;;7.37;6.30;;;12.30;93.20;;;;;;5025860;28;20376;-85
2022/10/05 02:05:50;;;;;;;7.13;6.40;;;12.30;92.50;;;;;;5022069;28;20173;-86
2022/10/05 02:08:35;;;;;;;7.30;6.70;;;12.30;92.20;;;;;;5025847;28;20187;-86
2022/10/05 02:11:07;;;;;;;6.80;6.10;;;12.30;91.50;;;;;;5018301;28;20185;-85
2022/10/05 02:14:06;;;;;;;7.27;6.57;;;12.20;91.90;;;;;;5024469;28;20205;-85
2022/10/05 02:16:50;;;;;;;7.17;6.57;;;12.20;91.70;;;;;;5024824;28;20239;-86
2022/10/05 02:19:34;;;;;;;6.90;6.40;;;12.20;91.50;;;;;;5021009;28;20239;-85
2022/10/05 02:22:29;;;;;;;6.70;6.20;;;12.20;91.30;;;;;;5020492;28;20214;-86
2022/10/05 02:25:00;;;;;;;6.80;6.17;;;12.00;90.00;;;;;;5019012;28;20191;-86
2022/10/05 02:27:41;;;;;;;6.67;6.00;;;12.00;91.50;;;;;;5022493;28;20200;-85
2022/10/05 02:30:08;;;;;;;6.70;6.13;;;12.00;91.30;;;;;;5027592;28;20241;-85
2022/10/05 02:32:41;;;;;;;6.83;6.17;;;12.00;92.30;;;;;;5029214;28;20207;-85
2022/10/05 02:35:16;;;;;;;7.33;6.63;;;12.00;92.40;;;;;;5038363;28;20190;-87
2022/10/05 02:38:13;;;;;;;8.10;7.40;;;12.00;92.40;;;;;;5039723;28;20197;-87
2022/10/05 02:40:44;;;;;;;9.30;8.40;;;12.00;94.00;;;;;;5029101;28;20302;-86
2022/10/05 02:43:22;;;;;;;11.33;8.70;;;12.00;95.90;;;;;;5029705;28;20224;-86
2022/10/05 02:45:51;;;;;;;9.27;8.20;;;12.10;96.20;;;;;;5027378;28;20229;-86
2022/10/05 02:48:28;;;;;;;10.03;9.20;;;12.10;97.10;;;;;;5029433;28;20178;-85
2022/10/05 02:51:18;;;;;;;23.83;10.37;;;12.10;97.70;;;;;;5030058;28;20191;-85
2022/10/05 02:53:56;;;;;;;11.13;9.53;;;12.10;98.40;;;;;;5027267;28;20229;-86
2022/10/05 02:56:35;;;;;;;10.63;9.83;;;11.80;99.90;;;;;;5029415;28;20196;-85
2022/10/05 02:59:11;;;;;;;9.20;8.50;;;11.90;99.90;;;;;;5028140;28;20187;-85
2022/10/05 03:01:49;;;;;;;10.53;9.63;;;11.80;99.90;;;;;;5026043;28;20178;-85
2022/10/05 03:04:37;;;;;;;10.70;9.80;;;11.80;99.90;;;;;;5021299;28;20182;-85
2022/10/05 03:07:16;;;;;;;23.07;11.10;;;11.90;99.90;;;;;;5017903;28;20181;-85
2022/10/05 03:10:04;;;;;;;11.67;10.23;;;11.90;99.90;;;;;;5020945;28;20183;-85
2022/10/05 03:13:20;;;;;;;12.47;11.37;;;11.70;99.90;;;;;;5017931;28;20210;-85
2022/10/05 03:16:08;;;;;;;19.00;10.93;;;11.60;99.90;;;;;;4990236;28;20709;-85
2022/10/05 03:18:56;;;;;;;10.27;9.40;;;11.50;99.90;;;;;;5012685;28;20181;-85
2022/10/05 03:21:41;;;;;;;11.07;10.00;;;11.40;99.90;;;;;;5019892;28;20237;-86
2022/10/05 03:24:34;;;;;;;13.27;10.17;;;11.40;99.90;;;;;;5019843;28;20204;-85
2022/10/05 03:27:16;;;;;;;11.10;10.10;;;11.10;99.90;;;;;;5018492;28;20200;-85
2022/10/05 03:29:51;;;;;;;12.47;10.67;;;11.00;99.90;;;;;;5021173;28;20257;-86
2022/10/05 03:33:02;;;;;;;11.10;10.00;;;10.90;99.90;;;;;;5019835;28;20310;-85
2022/10/05 03:36:04;;;;;;;13.20;10.70;;;10.90;99.90;;;;;;4974193;28;20288;-86
2022/10/05 03:38:35;;;;;;;14.00;9.80;;;11.00;99.90;;;;;;5019395;28;20196;-86
2022/10/05 03:41:25;;;;;;;11.53;10.13;;;10.90;99.90;;;;;;5027808;28;20213;-86
2022/10/05 03:44:15;;;;;;;10.33;9.43;;;10.90;99.90;;;;;;5026021;28;20201;-86
2022/10/05 03:47:10;;;;;;;10.87;9.73;;;10.90;99.90;;;;;;5016133;28;20267;-86
2022/10/05 03:50:04;;;;;;;9.67;8.80;;;11.00;99.90;;;;;;5010899;28;20344;-86
2022/10/05 03:52:53;;;;;;;13.87;10.90;;;11.10;99.90;;;;;;5018483;28;20212;-86
2022/10/05 03:55:48;;;;;;;11.30;10.00;;;11.10;99.90;;;;;;5012510;28;20721;-85
2022/10/05 03:58:51;;;;;;;13.87;10.23;;;11.00;99.90;;;;;;5016543;28;20700;-86
2022/10/05 04:01:24;;;;;;;14.80;9.93;;;11.00;99.90;;;;;;5020255;28;20289;-86
2022/10/05 04:03:58;;;;;;;13.77;10.43;;;11.00;99.90;;;;;;5020412;28;20197;-86
2022/10/05 04:06:37;;;;;;;11.13;9.53;;;11.00;99.90;;;;;;5016308;28;20188;-86
2022/10/05 04:09:25;;;;;;;10.73;9.60;;;10.80;99.90;;;;;;5030172;28;20200;-86
2022/10/05 04:12:03;;;;;;;10.50;9.50;;;11.00;99.90;;;;;;5047806;28;20303;-87
2022/10/05 04:15:08;;;;;;;9.63;8.63;;;11.10;99.90;;;;;;5031230;28;20196;-85
2022/10/05 04:17:41;;;;;;;10.23;9.20;;;11.10;99.90;;;;;;4998043;28;20200;-86
2022/10/05 04:20:19;;;;;;;11.43;9.60;;;11.00;99.90;;;;;;5022867;28;20209;-86
2022/10/05 04:23:15;;;;;;;8.77;8.07;;;11.00;99.90;;;;;;5023330;28;20216;-86
2022/10/05 04:25:58;;;;;;;9.00;8.30;;;11.20;99.90;;;;;;5021395;28;20198;-86
2022/10/05 04:28:36;;;;;;;9.17;8.27;;;11.40;99.90;;;;;;5027495;28;20250;-85
2022/10/05 04:31:09;;;;;;;8.83;8.13;;;11.50;99.90;;;;;;5024358;28;20209;-86
2022/10/05 04:33:34;;;;;;;8.90;8.20;;;11.60;99.90;;;;;;5026752;28;20290;-85
2022/10/05 04:36:23;;;;;;;9.87;9.07;;;11.70;99.90;;;;;;5026426;28;20189;-86
2022/10/05 04:39:06;;;;;;;8.40;7.70;;;11.80;99.90;;;;;;5028271;28;20272;-85
2022/10/05 04:41:41;;;;;;;11.00;10.07;;;11.80;99.90;;;;;;5026698;28;20209;-86
2022/10/05 04:44:13;;;;;;;12.20;11.07;;;11.90;99.90;;;;;;5024827;28;20681;-85
2022/10/05 04:46:50;;;;;;;10.10;9.30;;;12.00;99.90;;;;;;5027095;28;20210;-85
2022/10/05 04:49:53;;;;;;;9.90;9.00;;;12.00;99.90;;;;;;5027806;28;20224;-85
2022/10/05 04:52:41;;;;;;;10.00;9.20;;;12.10;99.90;;;;;;5017978;28;20205;-86
2022/10/05 04:55:19;;;;;;;10.17;9.27;;;12.10;99.90;;;;;;5025558;28;20178;-86
2022/10/05 04:58:09;;;;;;;16.87;10.83;;;12.00;99.90;;;;;;5018350;28;20182;-86
2022/10/05 05:00:49;;;;;;;12.03;11.00;;;11.80;99.90;;;;;;5007439;28;20232;-86
2022/10/05 05:03:53;;;;;;;10.20;9.40;;;11.50;99.90;;;;;;5024082;28;20270;-86
2022/10/05 05:06:55;;;;;;;14.33;11.43;;;11.50;99.90;;;;;;5020453;28;20181;-86
2022/10/05 05:09:23;;;;;;;12.00;10.83;;;11.40;99.90;;;;;;5016774;28;20201;-86
2022/10/05 05:12:00;;;;;;;15.13;10.43;;;11.30;99.90;;;;;;5025750;28;20291;-85
2022/10/05 05:14:44;;;;;;;11.37;10.37;;;11.10;99.90;;;;;;5026198;28;20267;-86
2022/10/05 05:17:36;;;;;;;11.13;9.30;;;11.10;99.90;;;;;;5026606;28;20191;-85
2022/10/05 05:20:25;;;;;;;10.83;9.13;;;11.30;99.90;;;;;;5023048;28;20229;-85
2022/10/05 05:23:17;;;;;;;10.20;9.20;;;11.40;99.90;;;;;;5030634;28;20197;-87
2022/10/05 05:26:10;;;;;;;9.07;8.17;;;11.40;99.90;;;;;;5036350;28;20186;-87
2022/10/05 05:29:04;;;;;;;9.03;8.20;;;11.40;99.90;;;;;;5039691;28;20275;-86
2022/10/05 05:31:48;;;;;;;8.80;8.10;;;11.30;99.90;;;;;;5025654;28;20198;-86
2022/10/05 05:34:29;;;;;;;9.50;8.50;;;11.30;99.90;;;;;;5034302;28;20284;-86
2022/10/05 05:37:17;;;;;;;8.27;7.67;;;11.40;99.90;;;;;;5024048;28;20233;-85
2022/10/05 05:40:15;;;;;;;8.40;7.70;;;11.50;99.90;;;;;;5025546;28;20201;-85
2022/10/05 05:43:08;;;;;;;11.50;8.40;;;11.50;99.90;;;;;;5020978;28;20739;-85
2022/10/05 05:45:40;;;;;;;8.30;7.60;;;11.30;99.90;;;;;;5022321;28;20189;-86
2022/10/05 05:48:16;;;;;;;8.70;7.80;;;11.40;99.90;;;;;;5029613;28;20246;-85
2022/10/05 05:50:59;;;;;;;8.47;7.80;;;11.50;99.90;;;;;;5021418;28;20210;-85
2022/10/05 05:53:44;;;;;;;8.40;7.73;;;11.60;99.90;;;;;;5018029;28;20725;-85
2022/10/05 05:56:11;;;;;;;8.77;7.97;;;11.70;99.90;;;;;;5021563;28;20183;-85
2022/10/05 05:58:47;;;;;;;8.50;7.80;;;11.90;99.90;;;;;;5022414;28;20205;-85
2022/10/05 06:01:34;;;;;;;9.43;8.63;;;11.90;99.90;;;;;;5017800;28;20211;-85
2022/10/05 06:04:09;;;;;;;11.87;8.90;;;12.00;99.90;;;;;;5024039;28;20183;-85
2022/10/05 06:06:38;;;;;;;9.50;8.73;;;12.00;99.90;;;;;;5022557;28;20278;-85
2022/10/05 06:09:34;;;;;;;10.80;9.83;;;11.90;99.90;;;;;;5021217;28;20187;-87
2022/10/05 06:12:08;;;;;;;9.87;9.07;;;11.90;99.90;;;;;;5016527;28;20233;-85
2022/10/05 06:14:44;;;;;;;17.30;10.60;;;12.00;99.90;;;;;;5016609;28;20249;-84
2022/10/05 06:17:19;;;;;;;9.93;9.13;;;12.10;99.90;;;;;;5018601;28;20186;-85
2022/10/05 06:19:46;;;;;;;11.13;9.93;;;12.00;99.90;;;;;;5012113;28;20202;-85
2022/10/05 06:22:21;;;;;;;11.50;10.50;;;12.00;99.90;;;;;;5012173;28;20209;-87
2022/10/05 06:25:15;;;;;;;10.80;9.80;;;12.10;99.90;;;;;;5020641;28;20177;-85
2022/10/05 06:28:10;;;;;;;11.70;10.53;;;12.10;99.90;;;;;;5013700;28;20190;-86
2022/10/05 06:30:46;;;;;;;11.50;10.30;;;12.10;99.90;;;;;;5020247;28;20238;-85
2022/10/05 06:33:26;;;;;;;12.80;11.17;;;12.00;99.90;;;;;;5020279;28;20201;-85
2022/10/05 06:35:55;;;;;;;24.50;12.27;;;11.80;99.90;;;;;;5001581;28;20637;-86
2022/10/05 06:38:45;;;;;;;11.53;10.47;;;11.60;99.90;;;;;;5000765;28;20184;-86
2022/10/05 06:41:31;;;;;;;13.37;11.97;;;11.50;99.90;;;;;;5002562;28;20218;-85
2022/10/05 06:44:06;;;;;;;18.43;10.77;;;11.40;99.90;;;;;;4987742;28;20194;-85
2022/10/05 06:47:13;;;;;;;10.97;10.03;;;11.40;99.90;;;;;;5020822;28;20184;-85
2022/10/05 06:49:50;;;;;;;13.90;9.90;;;11.40;99.90;;;;;;4983092;28;20205;-85
2022/10/05 06:52:44;;;;;;;11.50;10.50;;;11.50;99.90;;;;;;5021022;28;20212;-85
2022/10/05 06:55:32;;;;;;;12.13;10.93;;;11.40;99.90;;;;;;5029187;28;20169;-86
2022/10/05 06:58:38;;;;;;;12.20;11.10;;;11.30;99.90;;;;;;5019587;28;20175;-85
2022/10/05 07:01:14;;;;;;;11.07;10.17;;;11.30;99.90;;;;;;4980184;28;20246;-86
2022/10/05 07:04:06;;;;;;;13.50;12.23;;;11.40;99.90;;;;;;4999821;28;20353;-85
2022/10/05 07:06:43;;;;;;;13.43;11.20;;;11.40;99.90;;;;;;5008407;28;20247;-85
2022/10/05 07:09:24;;;;;;;13.20;11.90;;;11.50;99.90;;;;;;5017488;28;20686;-87
2022/10/05 07:12:32;;;;;;;13.77;12.43;;;11.50;99.90;;;;;;5017637;28;20628;-86
2022/10/05 07:15:18;;;;;;;13.00;11.77;;;11.50;99.90;;;;;;4997407;28;20237;-85
2022/10/05 07:18:04;;;;;;;14.07;12.33;;;11.50;99.90;;;;;;5014732;28;20178;-85
2022/10/05 07:20:38;;;;;;;18.33;13.87;;;11.40;99.90;;;;;;5016742;28;20216;-87
2022/10/05 07:23:19;;;;;;;15.37;13.80;;;11.40;99.90;;;;;;5023270;28;20207;-84
2022/10/05 07:25:59;;;;;;;15.00;13.57;;;11.20;99.90;;;;;;5025866;28;20635;-85
2022/10/05 07:28:27;;;;;;;15.37;13.87;;;11.30;99.90;;;;;;5010823;28;20173;-85
2022/10/05 07:31:13;;;;;;;15.57;14.07;;;11.30;99.90;;;;;;5015461;28;20586;-85
2022/10/05 07:33:57;;;;;;;15.07;13.57;;;11.50;99.90;;;;;;5014458;28;20231;-87
2022/10/05 07:39:49;;;;;;;15.97;14.30;;;11.60;99.90;;;;;;5026833;28;20600;-85
2022/10/05 07:42:27;;;;;;;15.43;13.93;;;11.50;99.90;;;;;;5028051;28;20204;-85
2022/10/05 07:45:04;;;;;;;16.13;14.43;;;11.50;99.90;;;;;;5032196;28;20197;-85
2022/10/05 07:47:46;;;;;;;15.50;14.00;;;11.50;99.90;;;;;;5038031;28;20192;-85
2022/10/05 07:50:18;;;;;;;15.10;13.70;;;11.60;99.90;;;;;;5027415;28;20184;-85
2022/10/05 07:53:03;;;;;;;15.53;13.93;;;11.60;99.90;;;;;;5027128;28;20203;-85
2022/10/05 07:55:37;;;;;;;15.60;14.13;;;11.60;99.90;;;;;;5012639;28;20181;-85
2022/10/05 07:58:35;;;;;;;15.30;13.67;;;11.70;99.90;;;;;;5010233;28;20188;-85
2022/10/05 08:01:07;;;;;;;16.17;14.57;;;11.80;99.90;;;;;;5030521;28;20204;-85
2022/10/05 08:03:42;;;;;;;14.77;13.37;;;11.90;99.90;;;;;;5027298;28;20252;-85
2022/10/05 08:06:27;;;;;;;15.27;13.87;;;12.00;99.90;;;;;;5025938;28;20272;-85
2022/10/05 08:09:06;;;;;;;14.60;13.30;;;12.10;99.90;;;;;;5016453;28;20188;-84
2022/10/05 08:11:51;;;;;;;15.07;13.67;;;12.20;99.90;;;;;;5035272;28;20264;-86
2022/10/05 08:14:27;;;;;;;16.07;14.50;;;12.30;99.90;;;;;;5031417;28;20602;-85
2022/10/05 08:16:56;;;;;;;15.60;14.20;;;12.30;99.90;;;;;;5020024;28;20620;-84
2022/10/05 08:19:45;;;;;;;17.80;15.07;;;12.30;99.90;;;;;;5018499;28;20185;-85
2022/10/05 08:22:18;;;;;;;15.63;14.23;;;12.30;99.90;;;;;;5018910;28;20610;-86
2022/10/05 08:25:05;;;;;;;15.33;13.83;;;12.40;99.90;;;;;;5015905;28;20186;-86
2022/10/05 08:27:40;;;;;;;16.20;14.70;;;12.50;99.90;;;;;;5018054;28;20170;-85
2022/10/05 08:30:09;;;;;;;15.40;14.10;;;12.90;99.90;;;;;;5014258;28;20204;-87
2022/10/05 08:33:11;;;;;;;15.60;14.20;;;13.10;99.90;;;;;;5014376;28;20404;-87
2022/10/05 08:35:39;;;;;;;16.37;14.87;;;13.10;99.90;;;;;;5017849;28;20263;-86
2022/10/05 08:38:15;;;;;;;16.37;14.77;;;13.00;99.90;;;;;;5031703;28;20194;-88
2022/10/05 08:41:06;;;;;;;16.03;14.50;;;13.00;99.90;;;;;;5022010;28;20214;-87
2022/10/05 08:44:09;;;;;;;15.17;13.77;;;13.10;99.90;;;;;;5038298;28;20211;-87
2022/10/05 08:47:06;;;;;;;15.50;14.13;;;13.30;99.90;;;;;;5015824;28;20196;-87
2022/10/05 08:49:50;;;;;;;14.63;13.33;;;13.80;99.90;;;;;;5008259;28;20680;-86
2022/10/05 08:52:36;;;;;;;14.43;12.93;;;13.80;99.90;;;;;;5006993;28;20220;-86
2022/10/05 08:55:28;;;;;;;13.33;12.23;;;13.90;99.90;;;;;;5018664;28;20194;-88
2022/10/05 08:58:05;;;;;;;14.47;13.07;;;13.70;99.90;;;;;;5013658;28;20194;-87
2022/10/05 09:00:50;;;;;;;14.17;12.77;;;13.70;99.90;;;;;;5009724;28;20212;-87
2022/10/05 09:03:21;;;;;;;14.27;13.00;;;13.90;99.90;;;;;;5013714;28;20208;-87
2022/10/05 09:06:02;;;;;;;13.10;11.93;;;13.90;99.90;;;;;;5022167;28;20260;-87
2022/10/05 09:08:43;;;;;;;13.27;12.17;;;14.10;99.90;;;;;;5012947;28;20562;-87
2022/10/05 09:11:17;;;;;;;14.13;13.03;;;14.10;99.90;;;;;;5016805;28;20176;-87
2022/10/05 09:14:05;;;;;;;13.40;12.17;;;14.00;99.90;;;;;;5015131;28;20351;-87
2022/10/05 09:16:40;;;;;;;13.83;12.53;;;14.20;99.90;;;;;;5016145;28;20189;-87
2022/10/05 09:19:51;;;;;;;13.43;12.30;;;14.50;99.90;;;;;;5035493;28;20185;-89
2022/10/05 09:22:37;;;;;;;11.97;11.00;;;14.70;99.90;;;;;;5008434;28;20809;-87
2022/10/05 09:25:22;;;;;;;11.47;10.57;;;15.10;99.90;;;;;;5010949;28;20182;-87
2022/10/05 09:27:56;;;;;;;11.60;10.60;;;15.40;99.90;;;;;;5010003;28;20190;-87
2022/10/05 09:30:25;;;;;;;11.47;10.63;;;15.70;99.90;;;;;;5003557;28;20200;-88
2022/10/05 09:33:12;;;;;;;11.27;10.17;;;15.80;99.90;;;;;;5014921;28;20204;-88
2022/10/05 09:35:59;;;;;;;11.37;10.47;;;15.90;99.90;;;;;;5013196;28;20210;-88
2022/10/05 09:39:02;;;;;;;11.27;10.27;;;16.00;99.90;;;;;;5008302;28;20260;-88
2022/10/05 09:42:05;;;;;;;10.87;9.87;;;16.10;99.90;;;;;;5010768;28;20252;-88
2022/10/05 09:44:44;;;;;;;10.47;9.67;;;16.20;99.90;;;;;;5012370;28;20645;-88
2022/10/05 09:48:00;;;;;;;10.40;9.60;;;16.30;99.90;;;;;;5009610;28;20300;-88
2022/10/05 09:50:49;;;;;;;10.63;9.73;;;16.70;99.90;;;;;;4989916;28;20265;-88
2022/10/05 09:53:40;;;;;;;10.30;9.40;;;17.00;99.00;;;;;;5013176;28;20246;-88
2022/10/05 09:56:28;;;;;;;9.73;8.93;;;17.20;98.00;;;;;;5016344;28;20196;-89
2022/10/05 09:59:17;;;;;;;9.82;8.98;;;17.40;96.90;;;;;;5015065;28;20301;-88
2022/10/05 10:02:04;;;;;;;9.82;9.02;;;17.50;97.30;;;;;;5010860;28;20763;-88
2022/10/05 10:04:46;;;;;;;13.98;9.32;;;17.80;96.20;;;;;;5009481;28;20186;-88
2022/10/05 10:07:23;;;;;;;9.13;8.32;;;18.10;93.80;;;;;;5013855;28;20181;-88
2022/10/05 10:10:29;;;;;;;8.80;8.20;;;18.10;94.50;;;;;;5010762;28;20188;-89
2022/10/05 10:13:20;;;;;;;7.28;6.63;;;18.30;92.60;;;;;;5016602;28;20217;-88
2022/10/05 10:16:09;;;;;;;8.00;7.30;;;18.70;89.70;;;;;;5015917;28;20177;-87
2022/10/05 10:18:53;;;;;;;8.57;7.97;;;18.90;91.50;;;;;;5015631;28;20196;-86
2022/10/05 10:21:37;;;;;;;7.70;7.07;;;19.20;87.00;;;;;;5023198;28;20197;-86
2022/10/05 10:24:35;;;;;;;7.78;7.13;;;19.10;85.70;;;;;;5020750;28;20405;-86
2022/10/05 10:27:10;;;;;;;7.63;7.13;;;19.30;86.20;;;;;;5021427;28;20181;-86
2022/10/05 10:29:41;;;;;;;7.18;6.53;;;19.10;87.80;;;;;;5021111;28;20185;-87
2022/10/05 10:32:44;;;;;;;7.55;6.88;;;19.40;86.80;;;;;;5020796;28;20277;-86
2022/10/05 10:35:43;;;;;;;7.13;6.63;;;19.80;83.80;;;;;;5020408;28;20216;-87
2022/10/05 10:38:24;;;;;;;6.88;6.38;;;20.20;84.10;;;;;;5000979;28;20194;-86
2022/10/05 10:41:10;;;;;;;6.15;5.75;;;20.30;83.10;;;;;;4997131;28;20289;-86
2022/10/05 10:44:17;;;;;;;6.82;6.32;;;19.90;83.90;;;;;;4996231;28;20206;-86
2022/10/05 10:47:03;;;;;;;5.55;5.15;;;20.00;84.00;;;;;;4996816;28;20226;-86
2022/10/05 10:49:38;;;;;;;5.75;5.25;;;20.00;82.90;;;;;;5004748;28;20174;-86
2022/10/05 10:52:36;;;;;;;5.43;5.03;;;20.20;82.40;;;;;;5029161;28;20204;-86
2022/10/05 10:55:26;;;;;;;5.40;4.95;;;20.40;81.50;;;;;;5032557;28;20200;-87
2022/10/05 10:58:01;;;;;;;6.20;5.03;;;20.60;80.00;;;;;;5040293;28;20291;-87
2022/10/05 11:01:17;;;;;;;5.88;4.82;;;20.60;81.00;;;;;;5019446;28;20205;-86
2022/10/05 11:03:58;;;;;;;5.43;5.03;;;20.80;80.70;;;;;;4996137;28;20293;-86
2022/10/05 11:06:42;;;;;;;6.57;5.05;;;21.10;82.00;;;;;;5016664;28;20178;-86
2022/10/05 11:10:12;;;;;;;6.07;5.55;;;21.20;78.50;;;;;;5022040;28;20178;-86
2022/10/05 11:13:07;;;;;;;5.07;4.68;;;21.20;82.60;;;;;;4941261;29;20265;-86
2022/10/05 11:16:10;;;;;;;6.35;5.75;;;21.80;77.80;;;;;;4987849;28;20191;-86
2022/10/05 11:18:47;;;;;;;8.27;7.57;;;22.20;77.30;;;;;;5005959;28;20198;-86
2022/10/05 11:21:30;;;;;;;8.20;7.50;;;22.50;75.40;;;;;;5017841;28;20215;-86
2022/10/05 11:24:21;;;;;;;5.95;5.45;;;22.60;73.40;;;;;;5023765;28;20204;-86
2022/10/05 11:27:03;;;;;;;5.65;5.15;;;22.60;73.50;;;;;;5019720;28;20183;-86
2022/10/05 11:29:50;;;;;;;6.60;5.20;;;22.70;73.60;;;;;;5005494;28;20151;-86
2022/10/05 11:32:49;;;;;;;7.07;5.30;;;22.90;71.30;;;;;;5006533;28;20213;-86
2022/10/05 11:35:33;;;;;;;6.05;5.65;;;23.10;72.30;;;;;;5005180;28;20163;-86
2022/10/05 11:38:41;;;;;;;5.88;5.40;;;23.20;70.40;;;;;;5010520;28;20851;-86
2022/10/05 11:41:55;;;;;;;5.25;4.85;;;23.70;71.40;;;;;;5019241;28;20300;-86
2022/10/05 11:45:18;;;;;;;4.85;4.55;;;23.80;67.60;;;;;;4958543;28;20191;-86
2022/10/05 11:48:22;;;;;;;7.53;6.85;;;23.90;69.70;;;;;;4867683;29;20217;-86
2022/10/05 11:51:07;;;;;;;4.68;4.38;;;24.40;66.30;;;;;;4900358;29;20284;-86
2022/10/05 11:53:58;;;;;;;4.38;3.97;;;24.30;65.10;;;;;;5001899;28;20309;-86
2022/10/05 11:56:35;;;;;;;5.57;4.20;;;23.70;68.80;;;;;;5028188;28;20176;-87
2022/10/05 11:59:10;;;;;;;4.75;4.30;;;24.00;66.80;;;;;;5032358;28;20181;-86
2022/10/05 12:02:01;;;;;;;4.45;4.18;;;24.30;66.50;;;;;;5016479;28;20825;-86
2022/10/05 12:04:36;;;;;;;5.53;4.18;;;24.60;64.10;;;;;;5018010;28;20711;-86
2022/10/05 12:07:19;;;;;;;4.82;4.43;;;24.80;64.90;;;;;;5018155;28;20244;-86
2022/10/05 12:10:26;;;;;;;5.32;4.03;;;24.90;60.50;;;;;;5016629;28;20653;-86
2022/10/05 12:13:04;;;;;;;4.18;3.80;;;24.70;59.80;;;;;;5002366;28;20319;-86
2022/10/05 12:16:00;;;;;;;4.82;4.43;;;24.90;59.20;;;;;;5017374;28;20181;-86
2022/10/05 12:18:29;;;;;;;6.57;4.10;;;24.50;60.00;;;;;;4994496;28;20247;-86
2022/10/05 12:21:10;;;;;;;4.22;3.80;;;24.70;58.50;;;;;;4995451;28;20201;-86
2022/10/05 12:23:48;;;;;;;4.43;4.03;;;24.70;58.40;;;;;;5004583;28;20205;-86
2022/10/05 12:26:25;;;;;;;4.20;3.90;;;24.90;60.60;;;;;;5015673;28;20169;-86
2022/10/05 12:28:56;;;;;;;4.45;4.10;;;25.40;58.50;;;;;;5015389;28;20189;-86
2022/10/05 12:31:40;;;;;;;4.30;3.90;;;25.70;54.70;;;;;;5015877;28;20260;-86
2022/10/05 12:34:20;;;;;;;5.22;3.85;;;25.70;57.40;;;;;;5016490;28;20169;-86
2022/10/05 12:37:11;;;;;;;4.38;4.00;;;25.70;56.50;;;;;;5015757;28;20186;-86
2022/10/05 12:39:49;;;;;;;4.82;4.22;;;25.40;57.20;;;;;;5004970;28;20248;-86
2022/10/05 12:42:33;;;;;;;6.43;3.78;;;25.70;56.50;;;;;;5014628;28;20537;-86
2022/10/05 12:45:03;;;;;;;37.17;33.47;;;25.80;56.00;;;;;;5016858;28;20162;-86
2022/10/05 12:47:53;;;;;;;6.95;5.10;;;25.90;55.20;;;;;;5016980;28;20184;-86
2022/10/05 12:50:33;;;;;;;5.43;4.93;;;26.10;53.60;;;;;;5027294;28;20181;-86
2022/10/05 12:53:21;;;;;;;7.10;6.50;;;26.40;52.70;;;;;;5037390;28;20193;-86
2022/10/05 12:56:10;;;;;;;7.05;6.45;;;26.50;52.60;;;;;;5018765;28;20204;-86
2022/10/05 12:58:57;;;;;;;9.02;8.18;;;26.20;52.30;;;;;;5017895;28;20176;-86
2022/10/05 13:01:32;;;;;;;6.60;6.10;;;26.10;52.10;;;;;;5029965;28;20228;-87
2022/10/05 13:04:22;;;;;;;6.13;5.60;;;26.00;52.90;;;;;;5037182;28;20201;-87
2022/10/05 13:07:21;;;;;;;5.15;4.38;;;26.00;53.80;;;;;;5036790;28;20161;-87
2022/10/05 13:10:08;;;;;;;4.07;3.78;;;26.20;52.70;;;;;;5030065;28;20173;-87
2022/10/05 13:13:04;;;;;;;4.95;4.30;;;26.30;52.00;;;;;;5023088;28;20277;-86
2022/10/05 13:15:39;;;;;;;4.68;3.55;;;26.30;51.80;;;;;;5016444;28;20190;-86
2022/10/05 13:18:23;;;;;;;27.00;24.13;;;26.60;51.80;;;;;;5020295;28;20188;-86
2022/10/05 13:20:55;;;;;;;4.93;4.07;;;26.80;51.10;;;;;;5017494;28;20212;-87
2022/10/05 13:23:48;;;;;;;6.85;6.20;;;26.90;51.00;;;;;;5017776;28;20202;-87
2022/10/05 13:26:20;;;;;;;21.73;19.52;;;27.00;51.30;;;;;;5017884;28;20165;-87
2022/10/05 13:29:17;;;;;;;6.90;6.30;;;27.10;49.90;;;;;;5017729;28;20185;-86
2022/10/05 13:31:48;;;;;;;15.68;13.93;;;27.00;50.20;;;;;;5017941;28;20216;-87
2022/10/05 13:34:30;;;;;;;4.47;4.18;;;27.10;49.60;;;;;;5016879;28;20178;-87
2022/10/05 13:37:06;;;;;;;15.80;14.23;;;27.40;49.40;;;;;;5018049;28;20173;-86
2022/10/05 13:39:53;;;;;;;4.47;4.05;;;27.30;49.70;;;;;;5022282;28;20169;-87
2022/10/05 13:42:44;;;;;;;4.00;3.70;;;27.20;49.00;;;;;;5036641;28;20209;-87
2022/10/05 13:45:21;;;;;;;4.30;4.00;;;26.80;50.10;;;;;;5017827;28;20284;-86
2022/10/05 13:48:11;;;;;;;3.90;3.70;;;26.60;52.00;;;;;;5017477;28;20185;-86
2022/10/05 13:51:12;;;;;;;4.30;3.92;;;26.50;50.50;;;;;;5014147;28;20194;-86
2022/10/05 13:54:03;;;;;;;4.88;4.47;;;26.50;51.60;;;;;;5017283;28;20198;-86
2022/10/05 13:56:38;;;;;;;4.88;4.28;;;26.90;49.20;;;;;;5017089;28;20186;-86
2022/10/05 13:59:19;;;;;;;4.47;4.18;;;27.40;49.10;;;;;;5016777;28;20177;-87
2022/10/05 14:02:15;;;;;;;4.30;3.97;;;27.50;49.90;;;;;;5013854;28;20201;-87
2022/10/05 14:04:43;;;;;;;5.10;4.38;;;27.50;49.60;;;;;;5016057;28;20169;-87
2022/10/05 14:08:09;;;;;;;4.25;3.95;;;27.40;50.10;;;;;;5016022;28;20236;-86